sensor_id;sensor_type;location;lat;lon;timestamp;pressure;altitude;pressure_sealevel;temperature
71897;BMP280;59767;51.344;12.362;2023-03-02T00:02:20;158747.69;;;0.54
71897;BMP280;59767;51.344;12.362;2023-03-02T00:05:28;158745.06;;;0.53
71897;BMP280;59767;51.344;12.362;2023-03-02T00:08:33;158734.69;;;0.49
71897;BMP280;59767;51.344;12.362;2023-03-02T00:11:37;158741.16;;;0.51
71897;BMP280;59767;51.344;12.362;2023-03-02T00:14:41;158733.34;;;0.48
71897;BMP280;59767;51.344;12.362;2023-03-02T00:17:45;158742.47;;;0.52
71897;BMP280;59767;51.344;12.362;2023-03-02T00:20:49;158739.88;;;0.51
71897;BMP280;59767;51.344;12.362;2023-03-02T00:23:53;158736.00;;;0.49
71897;BMP280;59767;51.344;12.362;2023-03-02T00:26:57;158728.13;;;0.46
71897;BMP280;59767;51.344;12.362;2023-03-02T00:30:02;158712.53;;;0.40
71897;BMP280;59767;51.344;12.362;2023-03-02T00:33:07;158712.53;;;0.40
71897;BMP280;59767;51.344;12.362;2023-03-02T00:36:19;158693.03;;;0.33
71897;BMP280;59767;51.344;12.362;2023-03-02T00:39:23;158687.84;;;0.31
71897;BMP280;59767;51.344;12.362;2023-03-02T00:42:27;158686.59;;;0.30
71897;BMP280;59767;51.344;12.362;2023-03-02T00:45:32;158681.38;;;0.28
71897;BMP280;59767;51.344;12.362;2023-03-02T00:48:35;158668.34;;;0.23
71897;BMP280;59767;51.344;12.362;2023-03-02T00:51:40;158669.66;;;0.24
71897;BMP280;59767;51.344;12.362;2023-03-02T00:54:43;158663.13;;;0.21
71897;BMP280;59767;51.344;12.362;2023-03-02T00:57:47;158670.94;;;0.24
71897;BMP280;59767;51.344;12.362;2023-03-02T01:00:58;158680.06;;;0.28
71897;BMP280;59767;51.344;12.362;2023-03-02T01:04:02;158708.63;;;0.39
71897;BMP280;59767;51.344;12.362;2023-03-02T01:07:12;158700.81;;;0.36
71897;BMP280;59767;51.344;12.362;2023-03-02T01:10:20;158686.59;;;0.30
71897;BMP280;59767;51.344;12.362;2023-03-02T01:13:25;158690.50;;;0.32
71897;BMP280;59767;51.344;12.362;2023-03-02T01:16:29;158694.34;;;0.33
71897;BMP280;59767;51.344;12.362;2023-03-02T01:19:34;158693.03;;;0.33
71897;BMP280;59767;51.344;12.362;2023-03-02T01:22:37;158703.41;;;0.37
71897;BMP280;59767;51.344;12.362;2023-03-02T01:25:42;158721.66;;;0.44
71897;BMP280;59767;51.344;12.362;2023-03-02T01:28:46;158721.66;;;0.44
71897;BMP280;59767;51.344;12.362;2023-03-02T01:31:52;158706.03;;;0.38
71897;BMP280;59767;51.344;12.362;2023-03-02T01:34:56;158685.28;;;0.30
71897;BMP280;59767;51.344;12.362;2023-03-02T01:38:00;158683.97;;;0.29
71897;BMP280;59767;51.344;12.362;2023-03-02T01:41:25;158677.47;;;0.27
71897;BMP280;59767;51.344;12.362;2023-03-02T01:44:53;158673.56;;;0.25
71897;BMP280;59767;51.344;12.362;2023-03-02T01:47:59;158661.88;;;0.21
71897;BMP280;59767;51.344;12.362;2023-03-02T01:51:04;158667.03;;;0.23
71897;BMP280;59767;51.344;12.362;2023-03-02T01:54:13;158637.16;;;0.11
71897;BMP280;59767;51.344;12.362;2023-03-02T01:57:22;158638.41;;;0.12
71897;BMP280;59767;51.344;12.362;2023-03-02T02:00:31;158628.03;;;0.08
71897;BMP280;59767;51.344;12.362;2023-03-02T02:03:36;158625.41;;;0.07
71897;BMP280;59767;51.344;12.362;2023-03-02T02:06:46;158616.31;;;0.03
71897;BMP280;59767;51.344;12.362;2023-03-02T02:09:51;158635.81;;;0.11
71897;BMP280;59767;51.344;12.362;2023-03-02T02:12:55;158620.22;;;0.05
71897;BMP280;59767;51.344;12.362;2023-03-02T02:15:59;158596.78;;;-0.05
71897;BMP280;59767;51.344;12.362;2023-03-02T02:19:11;158599.41;;;-0.04
71897;BMP280;59767;51.344;12.362;2023-03-02T02:22:32;158588.97;;;-0.08
71897;BMP280;59767;51.344;12.362;2023-03-02T02:29:25;158572.06;;;-0.14
71897;BMP280;59767;51.344;12.362;2023-03-02T02:32:36;158563.00;;;-0.18
71897;BMP280;59767;51.344;12.362;2023-03-02T02:35:44;158557.78;;;-0.20
71897;BMP280;59767;51.344;12.362;2023-03-02T02:38:52;158563.00;;;-0.18
71897;BMP280;59767;51.344;12.362;2023-03-02T02:42:00;158549.97;;;-0.23
71897;BMP280;59767;51.344;12.362;2023-03-02T02:45:24;158534.34;;;-0.29
71897;BMP280;59767;51.344;12.362;2023-03-02T02:48:30;158529.16;;;-0.31
71897;BMP280;59767;51.344;12.362;2023-03-02T02:51:35;158525.22;;;-0.32
71897;BMP280;59767;51.344;12.362;2023-03-02T02:54:41;158521.31;;;-0.34
71897;BMP280;59767;51.344;12.362;2023-03-02T02:57:46;158529.16;;;-0.31
71897;BMP280;59767;51.344;12.362;2023-03-02T03:00:51;158521.31;;;-0.34
71897;BMP280;59767;51.344;12.362;2023-03-02T03:04:00;158508.31;;;-0.39
71897;BMP280;59767;51.344;12.362;2023-03-02T03:07:05;158479.69;;;-0.50
71897;BMP280;59767;51.344;12.362;2023-03-02T03:13:28;158529.16;;;-0.31
71897;BMP280;59767;51.344;12.362;2023-03-02T03:16:33;158529.16;;;-0.31
71897;BMP280;59767;51.344;12.362;2023-03-02T03:19:40;158530.44;;;-0.30
71897;BMP280;59767;51.344;12.362;2023-03-02T03:22:45;158538.28;;;-0.27
71897;BMP280;59767;51.344;12.362;2023-03-02T03:25:49;158536.97;;;-0.28
71897;BMP280;59767;51.344;12.362;2023-03-02T03:28:53;158544.75;;;-0.25
71897;BMP280;59767;51.344;12.362;2023-03-02T03:32:01;158549.97;;;-0.23
71897;BMP280;59767;51.344;12.362;2023-03-02T03:35:07;158553.88;;;-0.21
71897;BMP280;59767;51.344;12.362;2023-03-02T03:38:15;158534.34;;;-0.29
71897;BMP280;59767;51.344;12.362;2023-03-02T03:41:20;158539.53;;;-0.27
71897;BMP280;59767;51.344;12.362;2023-03-02T03:44:24;158518.69;;;-0.35
71897;BMP280;59767;51.344;12.362;2023-03-02T03:47:28;158504.41;;;-0.40
71897;BMP280;59767;51.344;12.362;2023-03-02T03:50:32;158516.09;;;-0.36
71897;BMP280;59767;51.344;12.362;2023-03-02T03:53:36;158516.09;;;-0.36
71897;BMP280;59767;51.344;12.362;2023-03-02T03:56:43;158505.66;;;-0.40
71897;BMP280;59767;51.344;12.362;2023-03-02T03:59:48;158495.28;;;-0.44
71897;BMP280;59767;51.344;12.362;2023-03-02T04:02:52;158505.66;;;-0.40
71897;BMP280;59767;51.344;12.362;2023-03-02T04:05:56;158499.19;;;-0.42
71897;BMP280;59767;51.344;12.362;2023-03-02T04:09:01;158490.06;;;-0.46
71897;BMP280;59767;51.344;12.362;2023-03-02T04:12:08;158479.69;;;-0.50
71897;BMP280;59767;51.344;12.362;2023-03-02T04:15:15;158492.69;;;-0.45
71897;BMP280;59767;51.344;12.362;2023-03-02T04:18:19;158475.78;;;-0.51
71897;BMP280;59767;51.344;12.362;2023-03-02T04:21:24;158464.09;;;-0.56
71897;BMP280;59767;51.344;12.362;2023-03-02T04:24:28;158461.47;;;-0.57
71897;BMP280;59767;51.344;12.362;2023-03-02T04:27:33;158452.34;;;-0.60
71897;BMP280;59767;51.344;12.362;2023-03-02T04:30:37;158448.47;;;-0.62
71897;BMP280;59767;51.344;12.362;2023-03-02T04:33:41;158449.78;;;-0.61
71897;BMP280;59767;51.344;12.362;2023-03-02T04:36:46;158436.75;;;-0.66
71897;BMP280;59767;51.344;12.362;2023-03-02T04:39:50;158436.75;;;-0.66
71897;BMP280;59767;51.344;12.362;2023-03-02T04:42:55;158430.28;;;-0.69
71897;BMP280;59767;51.344;12.362;2023-03-02T04:46:00;158418.59;;;-0.73
71897;BMP280;59767;51.344;12.362;2023-03-02T04:49:04;158423.75;;;-0.71
71897;BMP280;59767;51.344;12.362;2023-03-02T04:52:08;158423.75;;;-0.71
71897;BMP280;59767;51.344;12.362;2023-03-02T04:55:18;158414.63;;;-0.75
71897;BMP280;59767;51.344;12.362;2023-03-02T04:58:22;158415.97;;;-0.74
71897;BMP280;59767;51.344;12.362;2023-03-02T05:01:27;158422.47;;;-0.72
71897;BMP280;59767;51.344;12.362;2023-03-02T05:04:31;158419.84;;;-0.73
71897;BMP280;59767;51.344;12.362;2023-03-02T05:07:36;158406.84;;;-0.78
71897;BMP280;59767;51.344;12.362;2023-03-02T05:10:40;158413.38;;;-0.75
71897;BMP280;59767;51.344;12.362;2023-03-02T05:13:43;158380.88;;;-0.88
71897;BMP280;59767;51.344;12.362;2023-03-02T05:16:47;158380.88;;;-0.88
71897;BMP280;59767;51.344;12.362;2023-03-02T05:19:51;158370.44;;;-0.92
71897;BMP280;59767;51.344;12.362;2023-03-02T05:22:59;158376.97;;;-0.89
71897;BMP280;59767;51.344;12.362;2023-03-02T05:26:03;158363.97;;;-0.94
71897;BMP280;59767;51.344;12.362;2023-03-02T05:29:07;158353.53;;;-0.98
71897;BMP280;59767;51.344;12.362;2023-03-02T05:32:11;158341.84;;;-1.03
71897;BMP280;59767;51.344;12.362;2023-03-02T05:35:16;158348.38;;;-1.00
71897;BMP280;59767;51.344;12.362;2023-03-02T05:38:20;158336.63;;;-1.05
71897;BMP280;59767;51.344;12.362;2023-03-02T05:41:25;158334.06;;;-1.06
71897;BMP280;59767;51.344;12.362;2023-03-02T05:44:29;158335.38;;;-1.05
71897;BMP280;59767;51.344;12.362;2023-03-02T05:47:33;158327.56;;;-1.08
71897;BMP280;59767;51.344;12.362;2023-03-02T05:50:38;158318.47;;;-1.12
71897;BMP280;59767;51.344;12.362;2023-03-02T05:53:42;158323.69;;;-1.10
71897;BMP280;59767;51.344;12.362;2023-03-02T05:56:47;158313.25;;;-1.14
71897;BMP280;59767;51.344;12.362;2023-03-02T05:59:53;158314.56;;;-1.13
71897;BMP280;59767;51.344;12.362;2023-03-02T06:02:57;158310.69;;;-1.15
71897;BMP280;59767;51.344;12.362;2023-03-02T06:06:01;158300.25;;;-1.19
71897;BMP280;59767;51.344;12.362;2023-03-02T06:09:05;158310.69;;;-1.15
71897;BMP280;59767;51.344;12.362;2023-03-02T06:12:09;158308.03;;;-1.16
71897;BMP280;59767;51.344;12.362;2023-03-02T06:15:13;158314.56;;;-1.13
71897;BMP280;59767;51.344;12.362;2023-03-02T06:18:17;158317.16;;;-1.12
71897;BMP280;59767;51.344;12.362;2023-03-02T06:21:21;158302.88;;;-1.18
71897;BMP280;59767;51.344;12.362;2023-03-02T06:24:25;158324.94;;;-1.09
71897;BMP280;59767;51.344;12.362;2023-03-02T06:27:29;158345.75;;;-1.01
71897;BMP280;59767;51.344;12.362;2023-03-02T06:30:33;158369.19;;;-0.92
71897;BMP280;59767;51.344;12.362;2023-03-02T06:33:37;158356.19;;;-0.97
71897;BMP280;59767;51.344;12.362;2023-03-02T06:36:42;158378.25;;;-0.89
71897;BMP280;59767;51.344;12.362;2023-03-02T06:39:46;158380.88;;;-0.88
71897;BMP280;59767;51.344;12.362;2023-03-02T06:42:49;158396.47;;;-0.82
71897;BMP280;59767;51.344;12.362;2023-03-02T06:45:53;158396.47;;;-0.82
71897;BMP280;59767;51.344;12.362;2023-03-02T06:48:57;158415.97;;;-0.74
71897;BMP280;59767;51.344;12.362;2023-03-02T06:52:02;158409.47;;;-0.77
71897;BMP280;59767;51.344;12.362;2023-03-02T06:55:06;158427.66;;;-0.70
71897;BMP280;59767;51.344;12.362;2023-03-02T06:58:10;158440.66;;;-0.65
71897;BMP280;59767;51.344;12.362;2023-03-02T07:01:16;158453.66;;;-0.60
71897;BMP280;59767;51.344;12.362;2023-03-02T07:04:20;158468.00;;;-0.54
71897;BMP280;59767;51.344;12.362;2023-03-02T07:07:24;158490.06;;;-0.46
71897;BMP280;59767;51.344;12.362;2023-03-02T07:10:28;158505.66;;;-0.40
71897;BMP280;59767;51.344;12.362;2023-03-02T07:13:33;158542.19;;;-0.26
71897;BMP280;59767;51.344;12.362;2023-03-02T07:16:37;158565.56;;;-0.17
71897;BMP280;59767;51.344;12.362;2023-03-02T07:19:41;158578.59;;;-0.12
71897;BMP280;59767;51.344;12.362;2023-03-02T07:22:45;158598.09;;;-0.04
71897;BMP280;59767;51.344;12.362;2023-03-02T07:25:50;158617.59;;;0.03
71897;BMP280;59767;51.344;12.362;2023-03-02T07:28:54;158630.59;;;0.09
71897;BMP280;59767;51.344;12.362;2023-03-02T07:31:58;158677.47;;;0.27
71897;BMP280;59767;51.344;12.362;2023-03-02T07:35:05;158686.59;;;0.30
71897;BMP280;59767;51.344;12.362;2023-03-02T07:38:10;158706.03;;;0.38
71897;BMP280;59767;51.344;12.362;2023-03-02T07:41:15;158742.47;;;0.52
71897;BMP280;59767;51.344;12.362;2023-03-02T07:44:19;158742.47;;;0.52
71897;BMP280;59767;51.344;12.362;2023-03-02T07:47:27;158775.00;;;0.64
71897;BMP280;59767;51.344;12.362;2023-03-02T07:50:32;158781.56;;;0.67
71897;BMP280;59767;51.344;12.362;2023-03-02T07:53:36;158818.00;;;0.81
71897;BMP280;59767;51.344;12.362;2023-03-02T07:56:40;158827.13;;;0.84
71897;BMP280;59767;51.344;12.362;2023-03-02T07:59:47;158849.22;;;0.93
71897;BMP280;59767;51.344;12.362;2023-03-02T08:02:55;158893.47;;;1.10
71897;BMP280;59767;51.344;12.362;2023-03-02T08:06:05;158935.16;;;1.26
71897;BMP280;59767;51.344;12.362;2023-03-02T08:09:09;158971.56;;;1.40
71897;BMP280;59767;51.344;12.362;2023-03-02T08:12:13;159103.13;;;1.91
71897;BMP280;59767;51.344;12.362;2023-03-02T08:15:18;159259.44;;;2.51
71897;BMP280;59767;51.344;12.362;2023-03-02T08:18:21;159392.34;;;3.02
71897;BMP280;59767;51.344;12.362;2023-03-02T08:21:28;159531.81;;;3.56
71897;BMP280;59767;51.344;12.362;2023-03-02T08:24:31;159600.91;;;3.82
71897;BMP280;59767;51.344;12.362;2023-03-02T08:27:36;159638.69;;;3.97
71897;BMP280;59767;51.344;12.362;2023-03-02T08:30:42;159651.75;;;4.02
71897;BMP280;59767;51.344;12.362;2023-03-02T08:33:46;159660.91;;;4.05
71897;BMP280;59767;51.344;12.362;2023-03-02T08:36:51;159636.09;;;3.96
71897;BMP280;59767;51.344;12.362;2023-03-02T08:39:55;159659.59;;;4.05
71897;BMP280;59767;51.344;12.362;2023-03-02T08:43:01;159727.44;;;4.31
71897;BMP280;59767;51.344;12.362;2023-03-02T08:46:05;159769.09;;;4.47
71897;BMP280;59767;51.344;12.362;2023-03-02T08:49:10;159789.94;;;4.55
71897;BMP280;59767;51.344;12.362;2023-03-02T08:52:14;159770.44;;;4.47
71897;BMP280;59767;51.344;12.362;2023-03-02T08:55:18;159757.38;;;4.42
71897;BMP280;59767;51.344;12.362;2023-03-02T08:58:22;159789.94;;;4.55
71897;BMP280;59767;51.344;12.362;2023-03-02T09:01:29;159813.50;;;4.64
71897;BMP280;59767;51.344;12.362;2023-03-02T09:04:33;159885.19;;;4.91
71897;BMP280;59767;51.344;12.362;2023-03-02T09:07:38;159929.56;;;5.08
71897;BMP280;59767;51.344;12.362;2023-03-02T09:10:42;159964.75;;;5.22
71897;BMP280;59767;51.344;12.362;2023-03-02T09:13:46;159916.50;;;5.03
71897;BMP280;59767;51.344;12.362;2023-03-02T09:16:50;159971.31;;;5.24
71897;BMP280;59767;51.344;12.362;2023-03-02T09:19:55;160023.50;;;5.44
71897;BMP280;59767;51.344;12.362;2023-03-02T09:22:59;160057.44;;;5.57
71897;BMP280;59767;51.344;12.362;2023-03-02T09:26:04;159977.84;;;5.27
71897;BMP280;59767;51.344;12.362;2023-03-02T09:29:08;160009.13;;;5.39
71897;BMP280;59767;51.344;12.362;2023-03-02T09:32:12;160022.19;;;5.44
71897;BMP280;59767;51.344;12.362;2023-03-02T09:35:19;160007.84;;;5.38
71897;BMP280;59767;51.344;12.362;2023-03-02T09:38:23;160041.78;;;5.51
71897;BMP280;59767;51.344;12.362;2023-03-02T09:45:12;160033.94;;;5.48
71897;BMP280;59767;51.344;12.362;2023-03-02T09:48:39;160054.78;;;5.56
71897;BMP280;59767;51.344;12.362;2023-03-02T09:52:15;160035.25;;;5.49
71897;BMP280;59767;51.344;12.362;2023-03-02T09:55:27;160061.34;;;5.59
71897;BMP280;59767;51.344;12.362;2023-03-02T09:58:36;160074.44;;;5.64
71897;BMP280;59767;51.344;12.362;2023-03-02T10:01:57;160065.28;;;5.60
71897;BMP280;59767;51.344;12.362;2023-03-02T10:05:07;160007.84;;;5.38
71897;BMP280;59767;51.344;12.362;2023-03-02T10:08:27;160015.69;;;5.41
71897;BMP280;59767;51.344;12.362;2023-03-02T10:15:36;160014.34;;;5.41
71897;BMP280;59767;51.344;12.362;2023-03-02T10:18:49;160041.78;;;5.51
71897;BMP280;59767;51.344;12.362;2023-03-02T10:22:07;160082.22;;;5.67
71897;BMP280;59767;51.344;12.362;2023-03-02T10:25:37;160088.72;;;5.69
71897;BMP280;59767;51.344;12.362;2023-03-02T10:28:44;160070.53;;;5.62
71897;BMP280;59767;51.344;12.362;2023-03-02T10:31:57;160082.22;;;5.67
71897;BMP280;59767;51.344;12.362;2023-03-02T10:35:12;160116.19;;;5.80
71897;BMP280;59767;51.344;12.362;2023-03-02T10:38:19;160118.78;;;5.81
71897;BMP280;59767;51.344;12.362;2023-03-02T10:41:31;160127.91;;;5.85
71897;BMP280;59767;51.344;12.362;2023-03-02T10:44:46;160142.25;;;5.90
71897;BMP280;59767;51.344;12.362;2023-03-02T10:48:07;160168.38;;;6.00
71897;BMP280;59767;51.344;12.362;2023-03-02T10:51:21;160186.69;;;6.07
71897;BMP280;59767;51.344;12.362;2023-03-02T10:54:27;160194.47;;;6.10
71897;BMP280;59767;51.344;12.362;2023-03-02T10:57:37;160194.47;;;6.10
71897;BMP280;59767;51.344;12.362;2023-03-02T11:00:42;160207.50;;;6.15
71897;BMP280;59767;51.344;12.362;2023-03-02T11:03:57;160231.00;;;6.24
71897;BMP280;59767;51.344;12.362;2023-03-02T11:07:19;160246.69;;;6.30
71897;BMP280;59767;51.344;12.362;2023-03-02T11:10:28;160280.66;;;6.43
71897;BMP280;59767;51.344;12.362;2023-03-02T11:13:37;160293.72;;;6.48
71897;BMP280;59767;51.344;12.362;2023-03-02T11:16:42;160348.50;;;6.69
71897;BMP280;59767;51.344;12.362;2023-03-02T11:19:46;160362.94;;;6.75
71897;BMP280;59767;51.344;12.362;2023-03-02T11:23:06;160357.69;;;6.73
71897;BMP280;59767;51.344;12.362;2023-03-02T11:29:40;160378.56;;;6.81
71897;BMP280;59767;51.344;12.362;2023-03-02T11:32:59;160429.47;;;7.00
71897;BMP280;59767;51.344;12.362;2023-03-02T11:36:23;160398.13;;;6.88
71897;BMP280;59767;51.344;12.362;2023-03-02T11:39:44;160416.44;;;6.95
71897;BMP280;59767;51.344;12.362;2023-03-02T11:43:00;160463.44;;;7.13
71897;BMP280;59767;51.344;12.362;2023-03-02T11:46:23;160488.31;;;7.23
71897;BMP280;59767;51.344;12.362;2023-03-02T11:49:39;160503.94;;;7.29
71897;BMP280;59767;51.344;12.362;2023-03-02T11:52:49;160515.72;;;7.33
71897;BMP280;59767;51.344;12.362;2023-03-02T11:55:55;160523.50;;;7.36
71897;BMP280;59767;51.344;12.362;2023-03-02T11:59:04;160507.88;;;7.30
71897;BMP280;59767;51.344;12.362;2023-03-02T12:02:11;160548.38;;;7.46
71897;BMP280;59767;51.344;12.362;2023-03-02T12:05:25;160549.63;;;7.46
71897;BMP280;59767;51.344;12.362;2023-03-02T12:11:39;160612.34;;;7.70
71897;BMP280;59767;51.344;12.362;2023-03-02T12:14:43;160668.50;;;7.92
71897;BMP280;59767;51.344;12.362;2023-03-02T12:17:47;160676.38;;;7.95
71897;BMP280;59767;51.344;12.362;2023-03-02T12:21:07;160671.13;;;7.93
71897;BMP280;59767;51.344;12.362;2023-03-02T12:24:27;160635.84;;;7.79
71897;BMP280;59767;51.344;12.362;2023-03-02T12:27:37;160646.28;;;7.83
71897;BMP280;59767;51.344;12.362;2023-03-02T12:30:42;160662.03;;;7.89
71897;BMP280;59767;51.344;12.362;2023-03-02T12:33:48;160659.41;;;7.88
71897;BMP280;59767;51.344;12.362;2023-03-02T12:36:57;160668.50;;;7.92
71897;BMP280;59767;51.344;12.362;2023-03-02T12:43:36;160711.69;;;8.08
71897;BMP280;59767;51.344;12.362;2023-03-02T12:46:45;160675.09;;;7.94
71897;BMP280;59767;51.344;12.362;2023-03-02T12:49:53;160684.22;;;7.98
71897;BMP280;59767;51.344;12.362;2023-03-02T12:53:15;160682.94;;;7.97
71897;BMP280;59767;51.344;12.362;2023-03-02T12:56:24;160697.25;;;8.03
71897;BMP280;59767;51.344;12.362;2023-03-02T12:59:28;160688.13;;;7.99
71897;BMP280;59767;51.344;12.362;2023-03-02T13:02:34;160686.88;;;7.99
71897;BMP280;59767;51.344;12.362;2023-03-02T13:05:39;160729.94;;;8.15
71897;BMP280;59767;51.344;12.362;2023-03-02T13:08:47;160716.88;;;8.10
71897;BMP280;59767;51.344;12.362;2023-03-02T13:11:52;160754.75;;;8.25
71897;BMP280;59767;51.344;12.362;2023-03-02T13:14:58;160737.78;;;8.18
71897;BMP280;59767;51.344;12.362;2023-03-02T13:18:02;160729.94;;;8.15
71897;BMP280;59767;51.344;12.362;2023-03-02T13:21:09;160753.47;;;8.24
71897;BMP280;59767;51.344;12.362;2023-03-02T13:27:37;160800.47;;;8.42
71897;BMP280;59767;51.344;12.362;2023-03-02T13:30:41;160830.56;;;8.54
71897;BMP280;59767;51.344;12.362;2023-03-02T13:33:52;160846.25;;;8.60
71897;BMP280;59767;51.344;12.362;2023-03-02T13:36:57;160841.03;;;8.58
71897;BMP280;59767;51.344;12.362;2023-03-02T13:40:05;160831.91;;;8.54
71897;BMP280;59767;51.344;12.362;2023-03-02T13:46:33;160855.38;;;8.63
71897;BMP280;59767;51.344;12.362;2023-03-02T13:49:39;160839.75;;;8.57
71897;BMP280;59767;51.344;12.362;2023-03-02T13:52:43;160855.38;;;8.63
71897;BMP280;59767;51.344;12.362;2023-03-02T13:55:47;160863.25;;;8.66
71897;BMP280;59767;51.344;12.362;2023-03-02T13:58:51;160881.56;;;8.73
71897;BMP280;59767;51.344;12.362;2023-03-02T14:01:56;160882.81;;;8.74
71897;BMP280;59767;51.344;12.362;2023-03-02T14:05:01;160856.72;;;8.64
71897;BMP280;59767;51.344;12.362;2023-03-02T14:08:05;160822.75;;;8.51
71897;BMP280;59767;51.344;12.362;2023-03-02T14:11:10;160839.75;;;8.57
71897;BMP280;59767;51.344;12.362;2023-03-02T14:14:17;160856.72;;;8.64
71897;BMP280;59767;51.344;12.362;2023-03-02T14:17:24;160865.84;;;8.67
71897;BMP280;59767;51.344;12.362;2023-03-02T14:20:29;160877.63;;;8.72
71897;BMP280;59767;51.344;12.362;2023-03-02T14:23:33;160855.38;;;8.63
71897;BMP280;59767;51.344;12.362;2023-03-02T14:26:40;160868.50;;;8.68
71897;BMP280;59767;51.344;12.362;2023-03-02T14:29:47;160899.88;;;8.80
71897;BMP280;59767;51.344;12.362;2023-03-02T14:32:51;160902.47;;;8.81
71897;BMP280;59767;51.344;12.362;2023-03-02T14:35:56;160894.66;;;8.78
71897;BMP280;59767;51.344;12.362;2023-03-02T14:39:03;160847.59;;;8.60
71897;BMP280;59767;51.344;12.362;2023-03-02T14:42:12;160850.16;;;8.61
71897;BMP280;59767;51.344;12.362;2023-03-02T14:45:16;160834.50;;;8.55
71897;BMP280;59767;51.344;12.362;2023-03-02T14:48:21;160837.09;;;8.56
71897;BMP280;59767;51.344;12.362;2023-03-02T14:51:28;160820.16;;;8.50
71897;BMP280;59767;51.344;12.362;2023-03-02T14:54:40;160817.50;;;8.49
71897;BMP280;59767;51.344;12.362;2023-03-02T14:57:47;160800.47;;;8.42
71897;BMP280;59767;51.344;12.362;2023-03-02T15:00:53;160770.50;;;8.31
71897;BMP280;59767;51.344;12.362;2023-03-02T15:03:57;160776.97;;;8.33
71897;BMP280;59767;51.344;12.362;2023-03-02T15:07:02;160752.16;;;8.24
71897;BMP280;59767;51.344;12.362;2023-03-02T15:10:10;160741.72;;;8.20
71897;BMP280;59767;51.344;12.362;2023-03-02T15:13:15;160741.72;;;8.20
71897;BMP280;59767;51.344;12.362;2023-03-02T15:16:19;160724.72;;;8.13
71897;BMP280;59767;51.344;12.362;2023-03-02T15:19:23;160731.25;;;8.16
71897;BMP280;59767;51.344;12.362;2023-03-02T15:22:27;160722.09;;;8.12
71897;BMP280;59767;51.344;12.362;2023-03-02T15:25:32;160731.25;;;8.16
71897;BMP280;59767;51.344;12.362;2023-03-02T15:28:36;160698.59;;;8.03
71897;BMP280;59767;51.344;12.362;2023-03-02T15:31:40;160693.34;;;8.01
71897;BMP280;59767;51.344;12.362;2023-03-02T15:34:44;160677.69;;;7.95
71897;BMP280;59767;51.344;12.362;2023-03-02T15:37:49;160637.19;;;7.80
71897;BMP280;59767;51.344;12.362;2023-03-02T15:40:53;160680.28;;;7.96
71897;BMP280;59767;51.344;12.362;2023-03-02T15:43:56;160659.41;;;7.88
71897;BMP280;59767;51.344;12.362;2023-03-02T15:47:00;160621.47;;;7.74
71897;BMP280;59767;51.344;12.362;2023-03-02T15:50:05;160645.03;;;7.83
71897;BMP280;59767;51.344;12.362;2023-03-02T15:53:09;160620.22;;;7.73
71897;BMP280;59767;51.344;12.362;2023-03-02T15:56:14;160608.44;;;7.69
71897;BMP280;59767;51.344;12.362;2023-03-02T15:59:27;160609.72;;;7.69
71897;BMP280;59767;51.344;12.362;2023-03-02T16:02:32;160584.91;;;7.60
71897;BMP280;59767;51.344;12.362;2023-03-02T16:05:36;160574.50;;;7.56
71897;BMP280;59767;51.344;12.362;2023-03-02T16:08:40;160566.66;;;7.53
71897;BMP280;59767;51.344;12.362;2023-03-02T16:11:44;160550.97;;;7.47
71897;BMP280;59767;51.344;12.362;2023-03-02T16:14:49;160556.16;;;7.49
71897;BMP280;59767;51.344;12.362;2023-03-02T16:17:53;160527.44;;;7.38
71897;BMP280;59767;51.344;12.362;2023-03-02T16:20:58;160513.13;;;7.32
71897;BMP280;59767;51.344;12.362;2023-03-02T16:24:03;160479.13;;;7.19
71897;BMP280;59767;51.344;12.362;2023-03-02T16:27:07;160493.44;;;7.25
71897;BMP280;59767;51.344;12.362;2023-03-02T16:30:14;160479.13;;;7.19
71897;BMP280;59767;51.344;12.362;2023-03-02T16:33:18;160473.88;;;7.17
71897;BMP280;59767;51.344;12.362;2023-03-02T16:36:22;160449.09;;;7.08
71897;BMP280;59767;51.344;12.362;2023-03-02T16:39:26;160443.84;;;7.06
71897;BMP280;59767;51.344;12.362;2023-03-02T16:42:30;160438.66;;;7.04
71897;BMP280;59767;51.344;12.362;2023-03-02T16:45:35;160429.47;;;7.00
71897;BMP280;59767;51.344;12.362;2023-03-02T16:48:40;160404.69;;;6.91
71897;BMP280;59767;51.344;12.362;2023-03-02T16:51:44;160398.13;;;6.88
71897;BMP280;59767;51.344;12.362;2023-03-02T16:54:49;160377.22;;;6.80
71897;BMP280;59767;51.344;12.362;2023-03-02T16:57:53;160364.25;;;6.75
71897;BMP280;59767;51.344;12.362;2023-03-02T17:00:57;160366.78;;;6.76
71897;BMP280;59767;51.344;12.362;2023-03-02T17:04:02;160332.81;;;6.63
71897;BMP280;59767;51.344;12.362;2023-03-02T17:07:08;160338.06;;;6.65
71897;BMP280;59767;51.344;12.362;2023-03-02T17:10:16;160296.31;;;6.49
71897;BMP280;59767;51.344;12.362;2023-03-02T17:13:20;160258.44;;;6.35
71897;BMP280;59767;51.344;12.362;2023-03-02T17:16:24;160214.06;;;6.18
71897;BMP280;59767;51.344;12.362;2023-03-02T17:19:28;160165.78;;;5.99
71897;BMP280;59767;51.344;12.362;2023-03-02T17:22:32;160126.59;;;5.84
71897;BMP280;59767;51.344;12.362;2023-03-02T17:25:37;160078.34;;;5.65
71897;BMP280;59767;51.344;12.362;2023-03-02T17:28:42;160043.03;;;5.52
71897;BMP280;59767;51.344;12.362;2023-03-02T17:31:46;160003.94;;;5.37
71897;BMP280;59767;51.344;12.362;2023-03-02T17:34:50;159992.22;;;5.32
71897;BMP280;59767;51.344;12.362;2023-03-02T17:37:54;159958.31;;;5.19
71897;BMP280;59767;51.344;12.362;2023-03-02T17:41:06;159915.22;;;5.03
71897;BMP280;59767;51.344;12.362;2023-03-02T17:44:11;159912.63;;;5.02
71897;BMP280;59767;51.344;12.362;2023-03-02T17:47:15;159886.50;;;4.92
71897;BMP280;59767;51.344;12.362;2023-03-02T17:50:21;159852.59;;;4.79
71897;BMP280;59767;51.344;12.362;2023-03-02T17:53:25;159830.41;;;4.70
71897;BMP280;59767;51.344;12.362;2023-03-02T17:56:30;159803.00;;;4.60
71897;BMP280;59767;51.344;12.362;2023-03-02T17:59:34;159773.06;;;4.48
71897;BMP280;59767;51.344;12.362;2023-03-02T18:02:38;159740.38;;;4.36
71897;BMP280;59767;51.344;12.362;2023-03-02T18:05:43;159727.44;;;4.31
71897;BMP280;59767;51.344;12.362;2023-03-02T18:08:48;159690.84;;;4.17